Time;durP1;ratioP1;P1;durP2;ratioP2;P2;SDS_P1;SDS_P2;PMS_P1;PMS_P2;Temp;Humidity;BMP_temperature;BMP_pressure;BME280_temperature;BME280_humidity;BME280_pressure;Samples;Min_cycle;Max_cycle;Signal;HPM_P1;HPM_P2
2022/12/30 00:00:38;;;;;;;24.80;13.50;;;;;;;1.19;78.59;99663.84;106771;1301;22211;-61
2022/12/30 00:03:05;;;;;;;21.20;11.10;;;;;;;1.16;78.61;99663.16;106633;1294;136892;-59
2022/12/30 00:05:31;;;;;;;;;;;;;;;1.16;78.75;99663.07;106673;1302;23639;-62
2022/12/30 00:07:58;;;;;;;22.60;11.50;;;;;;;1.15;78.99;99664.48;106678;1302;123766;-61
2022/12/30 00:10:25;;;;;;;21.60;12.00;;;;;;;1.13;79.08;99666.82;106754;1294;22134;-59
2022/12/30 00:34:58;;;;;;;23.40;12.70;;;;;;;1.14;80.92;99679.05;106635;1301;22893;-61
2022/12/30 00:37:25;;;;;;;;;;;;;;;1.15;81.03;99676.65;106732;1294;22388;-61
2022/12/30 00:39:52;;;;;;;21.50;12.30;;;;;;;1.15;80.82;99672.66;106707;1293;124330;-61
2022/12/30 00:45:05;;;;;;;24.50;12.70;;;;;;;1.17;81.27;99668.11;106706;1298;138907;-61
2022/12/30 00:47:33;;;;;;;26.30;13.80;;;;;;;1.19;81.22;99663.38;106726;1302;22151;-61
2022/12/30 00:58:17;;;;;;;27.90;14.70;;;;;;;1.26;81.51;99664.48;106786;1302;22327;-60
2022/12/30 01:00:43;;;;;;;30.10;15.20;;;;;;;1.26;81.54;99659.95;106627;1297;22961;-60
2022/12/30 01:03:10;;;;;;;25.80;13.90;;;;;;;1.26;81.63;99662.39;106626;1293;137017;-61
2022/12/30 01:05:38;;;;;;;27.70;14.10;;;;;;;1.27;81.68;99658.80;106819;1302;22165;-60
2022/12/30 01:08:05;;;;;;;30.40;14.80;;;;;;;1.28;81.68;99658.44;106702;1302;137281;-60
2022/12/30 01:10:31;;;;;;;26.00;13.30;;;;;;;1.29;81.62;99657.91;106818;1294;23039;-60
2022/12/30 01:12:58;;;;;;;32.70;14.70;;;;;;;1.30;81.69;99658.02;106765;1302;22891;-60
2022/12/30 01:15:25;;;;;;;23.70;13.10;;;;;;;1.30;81.70;99652.54;106712;1302;137729;-60
2022/12/30 01:17:51;;;;;;;22.30;12.40;;;;;;;1.33;81.73;99646.90;106814;1299;22241;-60
2022/12/30 01:20:18;;;;;;;24.10;13.00;;;;;;;1.35;81.70;99653.06;106646;1302;137683;-60
2022/12/30 01:22:45;;;;;;;23.40;13.00;;;;;;;1.36;81.73;99650.77;106760;1294;22134;-60
2022/12/30 01:25:12;;;;;;;23.70;12.90;;;;;;;1.36;81.62;99647.38;106806;1292;22332;-60
2022/12/30 01:27:38;;;;;;;24.00;12.70;;;;;;;1.36;81.58;99650.52;106643;1302;137594;-60
2022/12/30 01:30:06;;;;;;;23.20;13.30;;;;;;;1.38;81.62;99655.57;106781;1302;22184;-61
2022/12/30 01:32:35;;;;;;;22.00;13.30;;;;;;;1.36;81.56;99655.20;106687;1302;137809;-61
2022/12/30 01:35:02;;;;;;;18.90;12.30;;;;;;;1.37;81.43;99653.70;106779;1301;22228;-61
2022/12/30 01:37:28;;;;;;;21.70;12.20;;;;;;;1.35;81.52;99652.98;106767;1302;22090;-61
2022/12/30 01:39:55;;;;;;;;;;;;;;;1.34;81.45;99648.82;105103;1302;137069;-60
2022/12/30 01:42:24;;;;;;;19.70;11.40;;;;;;;1.34;81.44;99646.73;102326;1308;22535;-60
2022/12/30 01:44:56;;;;;;;19.10;11.30;;;;;;;1.33;81.52;99645.08;102290;1308;137885;-60
2022/12/30 01:47:48;;;;;;;17.80;10.80;;;;;;;1.30;81.37;99645.98;106488;1309;23385;-61
2022/12/30 01:50:19;;;;;;;22.10;12.30;;;;;;;1.29;81.55;99645.81;106652;1294;138827;-61
2022/12/30 01:52:59;;;;;;;23.20;12.40;;;;;;;1.29;81.52;99644.78;106610;1300;22204;-61
2022/12/30 01:55:39;;;;;;;22.70;13.00;;;;;;;1.28;81.39;99640.39;106763;1286;22152;-61
2022/12/30 01:58:10;;;;;;;25.50;11.70;;;;;;;1.26;81.24;99642.91;106632;1302;136660;-61
2022/12/30 02:00:36;;;;;;;23.00;13.00;;;;;;;1.25;81.26;99639.55;106756;1294;24221;-61
2022/12/30 02:03:03;;;;;;;25.40;13.40;;;;;;;1.23;81.30;99635.31;106645;1302;137780;-60
2022/12/30 02:05:31;;;;;;;24.60;13.20;;;;;;;1.22;81.41;99634.84;106729;1295;22334;-60
2022/12/30 02:08:09;;;;;;;21.60;12.70;;;;;;;1.21;81.36;99629.47;106633;1301;137548;-60
2022/12/30 02:10:36;;;;;;;17.30;10.90;;;;;;;1.20;81.32;99630.00;106654;1302;22118;-61
2022/12/30 02:13:04;;;;;;;19.00;9.80;;;;;;;1.20;81.32;99626.70;106614;1302;22283;-61
2022/12/30 02:15:36;;;;;;;14.40;9.70;;;;;;;1.20;81.42;99624.79;106691;1302;139812;-60
2022/12/30 02:18:25;;;;;;;17.90;10.40;;;;;;;1.21;81.29;99624.19;106601;1305;22199;-61
2022/12/30 02:21:30;;;;;;;14.50;8.70;;;;;;;1.23;81.42;99622.39;106520;1302;137845;-61
2022/12/30 02:24:24;;;;;;;19.20;9.60;;;;;;;1.24;81.43;99626.90;106724;1300;22245;-61
2022/12/30 02:27:03;;;;;;;16.00;10.10;;;;;;;1.25;81.34;99625.95;106617;1302;137922;-61
2022/12/30 02:29:54;;;;;;;19.90;9.90;;;;;;;1.24;81.43;99621.00;106748;1300;22129;-61
2022/12/30 02:32:52;;;;;;;18.50;10.20;;;;;;;1.25;81.40;99621.99;106486;1305;138462;-61
2022/12/30 02:35:23;;;;;;;17.40;10.40;;;;;;;1.24;81.32;99624.08;106765;1293;22228;-61
2022/12/30 02:37:59;;;;;;;19.30;11.40;;;;;;;1.25;81.42;99625.41;106727;1294;23315;-61
2022/12/30 02:44:36;;;;;;;21.70;10.70;;;;;;;1.25;81.66;99621.66;106823;1302;22780;-60
2022/12/30 02:46:11;;;;;;;14.30;8.80;;;;;;;1.26;81.54;99620.89;106713;1303;138087;-61
2022/12/30 02:48:39;;;;;;;17.60;10.00;;;;;;;1.28;81.68;99617.77;106754;1294;22142;-61
2022/12/30 02:53:51;;;;;;;17.80;11.00;;;;;;;1.32;81.76;99619.38;106720;1292;22223;-61
2022/12/30 02:56:18;;;;;;;16.70;9.90;;;;;;;1.34;81.86;99616.52;106707;1301;137721;-61
2022/12/30 02:58:50;;;;;;;20.30;11.20;;;;;;;1.36;82.01;99615.09;106804;1306;22150;-61
2022/12/30 03:04:17;;;;;;;18.20;10.90;;;;;;;1.42;81.88;99612.95;106684;1303;137177;-60
2022/12/30 03:06:53;;;;;;;21.30;9.50;;;;;;;1.45;82.12;99611.92;106786;1292;23370;-61
2022/12/30 03:09:34;;;;;;;18.40;10.90;;;;;;;1.46;82.01;99609.73;106712;1302;137964;-60
2022/12/30 03:12:17;;;;;;;18.50;10.50;;;;;;;1.49;82.00;99619.46;106686;1308;22139;-60
2022/12/30 03:14:53;;;;;;;20.60;10.00;;;;;;;1.50;81.92;99617.32;106542;1306;138165;-60
2022/12/30 03:17:23;;;;;;;17.50;10.00;;;;;;;1.52;81.87;99620.64;106704;1305;22107;-60
2022/12/30 03:19:52;;;;;;;16.80;9.90;;;;;;;1.54;81.71;99625.57;106675;1299;22130;-60
2022/12/30 03:27:52;;;;;;;16.30;10.20;;;;;;;1.57;81.77;99613.85;106537;1304;138581;-60
2022/12/30 03:30:19;;;;;;;18.10;11.10;;;;;;;1.62;81.79;99628.66;106674;1308;22988;-60
2022/12/30 03:32:46;;;;;;;19.80;12.60;;;;;;;1.63;81.69;99631.33;106484;1308;138021;-60
2022/12/30 03:35:12;;;;;;;;;;;;;;;1.65;81.78;99631.62;106724;1304;22398;-60
2022/12/30 03:37:49;;;;;;;23.20;12.40;;;;;;;1.67;81.72;99636.60;106743;1298;22143;-60
2022/12/30 03:40:21;;;;;;;25.30;13.20;;;;;;;1.69;81.61;99640.05;106617;1307;136992;-60
2022/12/30 03:42:48;;;;;;;18.20;11.60;;;;;;;1.70;81.60;99639.19;106675;1308;22141;-60
2022/12/30 03:45:15;;;;;;;16.10;10.00;;;;;;;1.71;81.57;99644.52;106628;1305;138897;-60
2022/12/30 03:47:41;;;;;;;15.70;9.60;;;;;;;1.72;81.57;99638.48;106704;1308;23329;-60
2022/12/30 03:50:08;;;;;;;17.60;10.10;;;;;;;1.73;81.53;99639.78;106653;1302;137888;-60
2022/12/30 03:52:35;;;;;;;16.90;8.90;;;;;;;1.74;81.47;99642.20;106762;1307;22296;-60
2022/12/30 03:55:02;;;;;;;17.20;9.30;;;;;;;1.77;81.57;99642.89;106751;1308;22185;-60
2022/12/30 03:57:29;;;;;;;16.70;9.80;;;;;;;1.81;81.51;99646.10;106580;1306;138766;-60
2022/12/30 03:59:56;;;;;;;18.70;11.10;;;;;;;1.83;81.46;99648.54;106768;1308;22923;-60
2022/12/30 04:02:22;;;;;;;18.10;10.30;;;;;;;1.85;81.45;99652.00;106686;1302;138712;-60
2022/12/30 04:04:49;;;;;;;16.50;10.30;;;;;;;1.87;81.43;99648.28;106701;1308;22235;-60
2022/12/30 04:07:16;;;;;;;;;;;;;;;1.90;81.45;99647.79;106816;1307;22345;-60
2022/12/30 04:09:43;;;;;;;17.70;10.20;;;;;;;1.92;81.50;99650.70;106658;1306;124266;-60
2022/12/30 04:12:09;;;;;;;23.30;11.10;;;;;;;1.93;81.26;99650.95;106821;1306;22265;-60
2022/12/30 04:14:36;;;;;;;19.30;11.10;;;;;;;1.94;81.16;99654.71;106652;1308;138736;-60
2022/12/30 04:17:03;;;;;;;19.10;10.60;;;;;;;1.96;81.24;99651.84;106783;1302;23420;-60
2022/12/30 04:19:30;;;;;;;20.80;12.00;;;;;;;1.98;81.08;99651.73;106749;1303;22191;-59
2022/12/30 04:21:56;;;;;;;19.50;10.90;;;;;;;2.00;81.15;99649.34;106671;1302;139449;-60
2022/12/30 04:24:23;;;;;;;17.20;10.00;;;;;;;2.02;81.07;99654.27;106760;1302;22936;-60
2022/12/30 04:26:50;;;;;;;16.00;9.30;;;;;;;2.03;81.18;99654.09;106596;1302;138230;-59
2022/12/30 04:29:17;;;;;;;;;;;;;;;2.05;81.07;99652.04;106796;1302;22367;-60
2022/12/30 04:31:44;;;;;;;17.10;9.90;;;;;;;2.07;81.12;99649.98;106745;1296;22213;-60
2022/12/30 04:34:12;;;;;;;;;;;;;;;2.08;81.02;99649.58;106657;1303;137136;-60
2022/12/30 04:36:39;;;;;;;18.40;9.90;;;;;;;2.10;81.05;99649.59;106810;1302;22615;-60
2022/12/30 04:39:07;;;;;;;20.50;11.40;;;;;;;2.10;80.98;99644.88;106670;1302;138220;-58
2022/12/30 04:41:33;;;;;;;18.60;11.30;;;;;;;2.11;81.01;99644.77;102326;1309;22480;-60
2022/12/30 04:44:04;;;;;;;18.70;10.50;;;;;;;2.11;80.93;99642.03;102182;1287;138545;-60
2022/12/30 04:46:31;;;;;;;16.50;11.30;;;;;;;2.12;80.80;99638.92;102402;1309;22523;-60
2022/12/30 04:48:57;;;;;;;21.30;12.00;;;;;;;2.11;80.98;99640.30;102320;1289;25358;-60
2022/12/30 04:51:24;;;;;;;;;;;;;;;2.10;80.91;99640.55;102216;1309;137497;-61
2022/12/30 04:53:51;;;;;;;18.40;11.30;;;;;;;2.10;80.88;99638.55;102335;1291;22681;-60
2022/12/30 04:56:18;;;;;;;;;;;;;;;2.11;81.03;99645.21;102197;1287;138315;-60
2022/12/30 04:58:51;;;;;;;21.50;12.10;;;;;;;2.10;81.02;99643.77;102330;1301;23916;-60
2022/12/30 05:01:18;;;;;;;29.00;14.70;;;;;;;2.11;81.09;99649.10;102276;1287;26013;-60
2022/12/30 05:03:45;;;;;;;26.80;15.00;;;;;;;2.10;80.99;99644.51;102198;1293;138532;-60
2022/12/30 05:06:12;;;;;;;;;;;;;;;2.12;81.18;99647.08;102346;1287;22567;-60
2022/12/30 05:08:39;;;;;;;26.40;15.00;;;;;;;2.12;81.16;99645.52;102310;1286;123823;-60
2022/12/30 05:11:05;;;;;;;27.90;15.30;;;;;;;2.12;81.16;99642.79;102317;1291;22495;-60
2022/12/30 05:13:32;;;;;;;27.10;15.00;;;;;;;2.12;81.19;99642.41;102303;1294;25336;-60
2022/12/30 05:15:59;;;;;;;23.30;14.40;;;;;;;2.09;81.16;99633.96;102217;1300;137723;-61
2022/12/30 05:18:26;;;;;;;;;;;;;;;2.13;81.14;99635.05;102292;1283;22993;-60
2022/12/30 05:20:52;;;;;;;21.50;13.60;;;;;;;2.11;81.12;99627.52;102238;1295;123443;-61
2022/12/30 05:26:14;;;;;;;23.70;11.40;;;;;;;2.09;81.01;99628.95;102203;1285;138501;-60
2022/12/30 05:28:41;;;;;;;19.80;12.40;;;;;;;2.07;81.17;99633.23;102382;1296;22471;-60
2022/12/30 05:31:08;;;;;;;21.10;12.30;;;;;;;2.06;81.15;99634.14;102384;1286;22962;-60
2022/12/30 05:33:35;;;;;;;18.70;10.50;;;;;;;2.05;81.09;99637.66;102257;1294;139933;-60
2022/12/30 05:36:02;;;;;;;18.90;11.30;;;;;;;2.04;81.28;99639.34;102317;1285;22526;-60
2022/12/30 05:38:29;;;;;;;;;;;;;;;2.05;81.34;99639.05;102338;1288;139108;-60
2022/12/30 05:40:55;;;;;;;19.30;11.00;;;;;;;2.05;81.34;99641.42;102443;1293;22601;-60
2022/12/30 05:43:22;;;;;;;;;;;;;;;2.05;81.24;99647.70;102264;1288;22450;-61
2022/12/30 05:45:49;;;;;;;24.20;12.50;;;;;;;2.03;81.50;99642.60;102277;1294;123590;-61
2022/12/30 05:48:16;;;;;;;24.60;13.10;;;;;;;2.03;81.44;99643.17;102308;1294;25481;-61
2022/12/30 05:50:43;;;;;;;28.30;14.50;;;;;;;1.97;81.45;99634.23;102148;1288;137762;-60
2022/12/30 05:53:10;;;;;;;31.30;14.50;;;;;;;2.01;81.47;99641.95;102347;1280;22481;-61
2022/12/30 05:55:37;;;;;;;27.10;14.30;;;;;;;1.94;81.48;99635.88;102326;1295;22481;-60
2022/12/30 05:58:03;;;;;;;22.10;13.10;;;;;;;1.99;81.47;99650.46;102174;1294;138393;-60
2022/12/30 06:00:30;;;;;;;21.00;12.90;;;;;;;1.97;81.49;99653.58;102414;1309;22696;-60
2022/12/30 06:02:57;;;;;;;20.60;12.20;;;;;;;1.95;81.40;99656.51;102283;1288;138337;-59
2022/12/30 06:05:24;;;;;;;;;;;;;;;1.95;81.51;99662.70;102403;1309;25280;-59
2022/12/30 06:07:50;;;;;;;24.00;11.90;;;;;;;1.94;81.56;99666.21;102402;1291;25365;-60
2022/12/30 06:10:17;;;;;;;20.70;12.80;;;;;;;1.94;81.63;99669.80;102292;1288;139465;-60
2022/12/30 06:12:44;;;;;;;19.00;12.30;;;;;;;1.93;81.60;99668.98;102391;1293;22476;-60
2022/12/30 06:15:11;;;;;;;20.60;12.00;;;;;;;1.94;81.67;99679.64;102232;1294;138974;-59
2022/12/30 06:17:38;;;;;;;20.30;12.50;;;;;;;1.95;81.70;99684.20;102345;1300;24241;-60
2022/12/30 06:20:05;;;;;;;;;;;;;;;1.95;81.68;99686.80;102228;1303;138020;-60
2022/12/30 06:22:32;;;;;;;21.00;13.00;;;;;;;1.95;81.73;99683.66;102378;1294;22960;-60
2022/12/30 06:24:58;;;;;;;;;;;;;;;1.93;81.72;99683.35;102430;1287;25299;-61
2022/12/30 06:27:25;;;;;;;21.10;11.80;;;;;;;1.92;81.75;99681.52;102267;1310;123430;-61
2022/12/30 06:29:52;;;;;;;19.60;12.50;;;;;;;1.85;81.67;99678.06;102381;1308;26255;-61
2022/12/30 06:32:19;;;;;;;;;;;;;;;1.88;81.80;99685.80;102375;1301;138124;-61
2022/12/30 06:34:45;;;;;;;22.10;12.90;;;;;;;1.85;81.82;99685.52;102356;1288;24340;-61
2022/12/30 06:37:12;;;;;;;25.50;13.40;;;;;;;1.84;82.02;99692.41;102330;1309;22496;-61
2022/12/30 06:39:39;;;;;;;28.40;14.20;;;;;;;1.84;82.11;99695.51;102259;1289;138376;-60
2022/12/30 06:42:06;;;;;;;19.70;12.30;;;;;;;1.84;82.11;99697.20;102291;1287;23051;-60
2022/12/30 06:44:32;;;;;;;25.40;13.10;;;;;;;1.85;82.19;99698.16;102236;1304;138846;-60
2022/12/30 06:46:59;;;;;;;21.80;13.40;;;;;;;1.88;82.38;99704.08;102377;1300;22895;-60
2022/12/30 06:49:26;;;;;;;21.80;13.40;;;;;;;1.90;82.39;99706.84;102389;1304;26157;-59
2022/12/30 06:51:53;;;;;;;25.60;14.40;;;;;;;1.93;82.34;99712.94;102214;1294;138053;-61
2022/12/30 06:54:19;;;;;;;22.60;13.70;;;;;;;1.95;82.44;99709.08;102507;1295;24299;-61
2022/12/30 06:56:46;;;;;;;;;;;;;;;1.96;82.45;99707.28;102440;1293;137408;-61
2022/12/30 06:59:13;;;;;;;27.30;14.20;;;;;;;1.99;82.43;99710.52;102612;1295;22548;-61
2022/12/30 07:01:40;;;;;;;26.30;15.40;;;;;;;2.01;82.57;99709.83;102507;1309;22979;-61
2022/12/30 07:04:06;;;;;;;25.40;14.20;;;;;;;2.02;82.35;99711.19;102222;1301;137162;-60
2022/12/30 07:06:33;;;;;;;;;;;;;;;2.03;82.34;99705.89;102298;1302;24958;-60
2022/12/30 07:09:00;;;;;;;21.50;13.60;;;;;;;2.05;82.34;99704.48;102193;1285;123557;-60
2022/12/30 07:11:27;;;;;;;21.70;13.30;;;;;;;2.05;82.26;99702.84;102208;1304;24316;-60
2022/12/30 07:13:53;;;;;;;25.00;14.50;;;;;;;2.05;82.30;99703.59;102348;1285;25152;-60
2022/12/30 07:16:20;;;;;;;25.10;14.20;;;;;;;2.06;82.27;99698.23;102430;1294;25281;-60
2022/12/30 07:18:47;;;;;;;;;;;;;;;2.10;82.39;99702.30;102434;1288;25265;-60
2022/12/30 07:21:14;;;;;;;21.50;12.30;;;;;;;2.11;82.37;99703.68;102315;1286;125854;-61
2022/12/30 07:23:40;;;;;;;24.40;14.70;;;;;;;2.14;82.36;99703.94;102351;1285;22480;-61
2022/12/30 07:26:07;;;;;;;;;;;;;;;2.16;82.40;99710.23;102314;1309;138212;-60
2022/12/30 07:28:34;;;;;;;27.20;14.40;;;;;;;2.19;82.19;99712.92;102361;1293;22892;-61
2022/12/30 07:31:00;;;;;;;23.60;13.50;;;;;;;2.21;82.38;99714.26;102347;1293;22611;-60
2022/12/30 07:33:27;;;;;;;27.20;14.60;;;;;;;2.24;82.30;99712.96;102268;1290;137415;-60
2022/12/30 07:35:54;;;;;;;;;;;;;;;2.27;82.25;99708.89;102357;1295;25917;-60
2022/12/30 07:38:21;;;;;;;25.60;13.40;;;;;;;2.29;82.38;99708.16;102294;1294;125148;-59
2022/12/30 07:40:47;;;;;;;25.60;14.70;;;;;;;2.33;82.32;99711.98;102513;1298;23211;-60
2022/12/30 07:43:14;;;;;;;22.80;14.10;;;;;;;2.35;82.21;99710.94;102333;1294;24409;-61
2022/12/30 07:45:41;;;;;;;25.40;15.00;;;;;;;2.37;82.17;99706.98;102089;1305;137410;-65
2022/12/30 07:48:08;;;;;;;;;;;;;;;2.40;82.00;99706.71;102357;1287;25679;-60
2022/12/30 07:50:39;;;;;;;25.80;14.10;;;;;;;2.43;82.03;99707.02;102219;1294;124181;-61
2022/12/30 07:53:06;;;;;;;28.00;14.10;;;;;;;2.46;82.14;99710.19;106724;1297;22196;-61
2022/12/30 07:55:32;;;;;;;26.50;14.70;;;;;;;2.49;82.12;99708.55;106810;1285;22153;-61
2022/12/30 07:57:59;;;;;;;;;;;;;;;2.54;82.13;99708.36;106704;1302;138300;-62
2022/12/30 08:00:26;;;;;;;25.50;13.50;;;;;;;2.58;82.09;99709.63;106766;1302;22087;-62
2022/12/30 08:02:53;;;;;;;26.50;14.00;;;;;;;2.63;82.12;99708.02;106691;1302;138818;-62
2022/12/30 08:05:19;;;;;;;;;;;;;;;2.69;82.07;99711.31;106785;1302;22357;-62
2022/12/30 08:07:46;;;;;;;26.40;13.80;;;;;;;2.75;82.08;99709.46;106791;1302;22214;-62
2022/12/30 08:10:13;;;;;;;31.50;15.30;;;;;;;2.81;82.11;99711.89;106636;1302;137515;-59
2022/12/30 08:12:40;;;;;;;27.70;15.20;;;;;;;2.88;81.84;99717.90;106754;1294;22142;-62
2022/12/30 08:15:07;;;;;;;23.20;14.00;;;;;;;2.95;81.73;99721.02;106651;1301;137854;-61
2022/12/30 08:17:33;;;;;;;27.20;15.20;;;;;;;3.00;81.71;99717.27;106741;1302;22121;-61
2022/12/30 08:20:00;;;;;;;29.00;15.00;;;;;;;3.03;81.47;99712.50;106635;1293;140278;-61
2022/12/30 08:22:27;;;;;;;27.60;15.50;;;;;;;3.10;81.33;99717.83;106758;1286;22243;-61
2022/12/30 08:24:53;;;;;;;;;;;;;;;3.15;81.31;99712.08;106735;1302;22335;-61
2022/12/30 08:27:20;;;;;;;25.10;14.20;;;;;;;3.20;81.12;99710.58;106720;1294;124099;-61
2022/12/30 08:29:47;;;;;;;26.50;13.80;;;;;;;3.25;81.06;99721.04;106789;1302;22299;-61
2022/12/30 08:32:14;;;;;;;30.90;15.70;;;;;;;3.30;80.88;99720.35;106725;1295;138168;-62
2022/12/30 08:34:40;;;;;;;;;;;;;;;3.36;80.82;99725.84;106771;1295;22444;-61
2022/12/30 08:37:07;;;;;;;24.50;14.40;;;;;;;3.42;80.82;99720.92;106838;1302;22198;-62
2022/12/30 08:39:34;;;;;;;22.50;13.80;;;;;;;3.46;80.72;99717.11;106719;1294;137879;-62
2022/12/30 08:42:01;;;;;;;;;;;;;;;3.51;80.47;99714.98;106802;1302;22409;-61
2022/12/30 08:44:27;;;;;;;27.70;12.30;;;;;;;3.56;80.44;99717.36;106673;1293;124077;-62
2022/12/30 08:46:54;;;;;;;29.00;16.70;;;;;;;3.61;80.53;99723.73;106797;1302;23036;-62
2022/12/30 08:49:21;;;;;;;;;;;;;;;3.65;80.52;99724.92;106787;1291;22387;-60
2022/12/30 08:51:48;;;;;;;29.70;16.90;;;;;;;3.69;80.13;99733.72;106690;1302;123227;-61
2022/12/30 08:54:16;;;;;;;;;;;;;;;3.72;80.11;99734.92;106681;1295;22433;-62
2022/12/30 08:56:45;;;;;;;32.10;15.30;;;;;;;3.75;80.18;99735.54;106697;1287;123321;-64
2022/12/30 08:59:12;;;;;;;28.40;16.00;;;;;;;3.79;79.79;99729.52;106794;1302;22970;-61
2022/12/30 09:01:41;;;;;;;27.50;15.70;;;;;;;3.82;79.90;99733.20;106777;1294;22886;-61
2022/12/30 09:04:09;;;;;;;25.80;15.10;;;;;;;3.85;79.58;99734.63;106664;1302;138472;-61
2022/12/30 09:06:37;;;;;;;30.00;15.80;;;;;;;3.87;79.59;99735.63;106800;1302;22624;-62
2022/12/30 09:09:05;;;;;;;27.60;15.40;;;;;;;3.90;79.51;99739.91;106672;1302;139484;-61
2022/12/30 09:11:32;;;;;;;23.00;14.60;;;;;;;3.94;79.58;99739.28;106780;1302;22402;-61
2022/12/30 09:14:00;;;;;;;24.30;14.30;;;;;;;3.97;79.24;99737.75;106666;1301;138246;-61
2022/12/30 09:16:27;;;;;;;28.40;15.70;;;;;;;4.01;79.42;99734.60;106728;1302;22319;-61
2022/12/30 09:18:54;;;;;;;28.20;16.10;;;;;;;4.05;79.24;99731.26;106722;1296;22131;-61
2022/12/30 09:21:21;;;;;;;35.10;16.30;;;;;;;4.09;79.05;99726.27;106687;1301;137513;-61
2022/12/30 09:23:48;;;;;;;22.10;15.00;;;;;;;4.12;78.81;99723.99;106804;1302;22155;-60
2022/12/30 09:26:15;;;;;;;;;;;;;;;4.14;78.88;99722.08;106674;1302;137339;-60
2022/12/30 09:28:42;;;;;;;24.30;13.80;;;;;;;4.17;78.67;99717.65;106832;1302;22240;-62
2022/12/30 09:31:09;;;;;;;25.90;15.20;;;;;;;4.18;78.66;99716.30;106717;1300;22135;-62
2022/12/30 09:33:36;;;;;;;27.30;14.80;;;;;;;4.20;78.83;99719.06;106664;1302;137248;-62
2022/12/30 09:36:04;;;;;;;24.00;15.60;;;;;;;4.23;78.80;99712.46;106755;1302;23042;-60
2022/12/30 09:38:30;;;;;;;22.50;14.20;;;;;;;4.26;78.82;99712.88;106689;1302;138197;-61
2022/12/30 09:41:01;;;;;;;23.90;14.50;;;;;;;4.30;78.66;99708.89;106774;1302;22110;-62
2022/12/30 09:43:43;;;;;;;22.50;14.40;;;;;;;4.35;78.79;99701.95;106727;1302;22115;-59
2022/12/30 09:46:13;;;;;;;23.40;13.30;;;;;;;4.39;78.42;99695.23;106655;1301;138201;-61
2022/12/30 09:48:44;;;;;;;22.40;14.50;;;;;;;4.43;78.45;99694.72;106801;1302;22217;-62
2022/12/30 09:51:13;;;;;;;23.20;14.60;;;;;;;4.48;78.61;99695.27;106640;1302;137785;-62
2022/12/30 09:53:45;;;;;;;27.60;15.80;;;;;;;4.54;78.65;99694.71;106707;1302;22283;-64
2022/12/30 09:56:17;;;;;;;25.20;14.90;;;;;;;4.61;78.68;99697.83;106652;1302;139281;-62
2022/12/30 09:58:44;;;;;;;26.00;16.60;;;;;;;4.68;78.27;99693.48;106644;1302;22127;-64
2022/12/30 10:01:11;;;;;;;26.40;16.40;;;;;;;4.74;78.61;99690.30;106751;1301;22241;-63
2022/12/30 10:03:38;;;;;;;;;;;;;;;4.80;78.52;99685.10;106654;1294;141239;-61
2022/12/30 10:06:48;;;;;;;21.10;13.30;;;;;;;4.87;78.26;99679.14;106748;1302;22105;-61
2022/12/30 10:09:47;;;;;;;24.20;15.00;;;;;;;4.94;78.35;99678.78;106685;1302;137846;-64
2022/12/30 10:12:20;;;;;;;25.70;15.70;;;;;;;5.01;77.70;99681.80;106396;1308;22857;-63
2022/12/30 10:14:59;;;;;;;26.40;15.50;;;;;;;5.03;77.76;99677.02;106288;1292;137283;-63
2022/12/30 10:17:44;;;;;;;24.50;15.20;;;;;;;5.12;77.42;99682.70;106465;1306;22177;-63
2022/12/30 10:20:20;;;;;;;29.60;16.00;;;;;;;5.18;77.27;99680.20;106345;1306;138162;-64
2022/12/30 10:23:05;;;;;;;27.40;16.40;;;;;;;5.22;76.91;99679.66;106441;1306;23523;-63
2022/12/30 10:25:39;;;;;;;22.20;14.90;;;;;;;5.24;76.86;99679.11;106458;1306;22149;-62
2022/12/30 10:28:08;;;;;;;30.80;16.10;;;;;;;5.27;76.49;99674.02;106109;1306;137962;-62
2022/12/30 10:30:37;;;;;;;28.40;16.40;;;;;;;5.30;76.61;99674.13;106342;1308;22381;-67
2022/12/30 10:33:07;;;;;;;28.10;17.20;;;;;;;5.33;76.21;99673.58;106256;1307;137151;-67
2022/12/30 10:35:36;;;;;;;27.70;15.40;;;;;;;5.34;76.02;99669.92;106426;1306;23392;-67
2022/12/30 10:38:13;;;;;;;30.10;17.00;;;;;;;5.37;76.05;99666.86;106175;1308;137829;-67
2022/12/30 10:41:02;;;;;;;28.20;17.10;;;;;;;5.38;76.19;99663.83;106417;1303;22223;-67
2022/12/30 10:43:53;;;;;;;26.20;15.60;;;;;;;5.36;75.85;99655.86;106401;1306;22275;-69
2022/12/30 10:46:19;;;;;;;27.40;16.50;;;;;;;5.40;75.84;99655.80;106284;1308;138552;-68
2022/12/30 10:48:49;;;;;;;;;;;;;;;5.41;75.88;99657.07;106621;1302;22383;-70
2022/12/30 10:53:39;;;;;;;26.40;16.00;;;;;;;5.45;76.14;99654.90;99753;1336;547012;-67
2022/12/30 10:56:08;;;;;;;24.60;14.50;;;;;;;5.46;76.07;99656.80;101238;1323;137504;-67
2022/12/30 10:58:42;;;;;;;21.60;14.20;;;;;;;5.48;75.83;99653.83;105123;1323;22142;-69
2022/12/30 11:01:28;;;;;;;26.80;14.80;;;;;;;5.49;75.79;99649.48;105882;1315;22411;-62
2022/12/30 11:03:59;;;;;;;24.10;14.80;;;;;;;5.51;75.91;99644.51;105861;1312;138833;-61
2022/12/30 11:06:30;;;;;;;22.70;14.60;;;;;;;5.53;75.65;99644.73;105918;1309;195161;-62
2022/12/30 11:09:12;;;;;;;26.70;16.60;;;;;;;5.54;75.63;99644.08;106198;1309;137326;-60
2022/12/30 11:15:02;;;;;;;23.90;14.90;;;;;;;5.58;75.74;99643.95;106080;1310;139338;-61
2022/12/30 11:17:33;;;;;;;24.10;15.20;;;;;;;5.59;75.41;99639.91;106179;1309;22636;-65
2022/12/30 11:20:04;;;;;;;34.40;16.20;;;;;;;5.58;75.22;99639.34;106079;1310;138629;-61
2022/12/30 11:22:31;;;;;;;27.90;17.30;;;;;;;5.58;75.31;99636.31;106092;1309;22149;-62
2022/12/30 11:24:58;;;;;;;;;;;;;;;5.58;75.27;99643.63;106156;1312;22356;-63
2022/12/30 11:27:43;;;;;;;26.00;16.20;;;;;;;5.58;75.31;99646.29;106490;1303;123637;-62
2022/12/30 11:30:35;;;;;;;31.50;16.40;;;;;;;5.58;75.20;99647.20;106626;1305;22325;-61
2022/12/30 11:33:03;;;;;;;26.60;17.00;;;;;;;5.59;75.11;99651.64;106509;1302;137314;-61
2022/12/30 11:35:39;;;;;;;27.80;16.50;;;;;;;5.59;75.10;99650.41;106604;1303;22107;-62
2022/12/30 11:38:34;;;;;;;29.00;16.10;;;;;;;5.58;75.13;99652.45;106549;1305;137760;-61
2022/12/30 11:41:17;;;;;;;28.90;16.90;;;;;;;5.56;75.02;99650.59;106757;1302;22204;-67
2022/12/30 11:43:45;;;;;;;27.90;17.20;;;;;;;5.60;74.88;99651.05;106562;1303;22977;-66
2022/12/30 11:46:17;;;;;;;31.20;16.40;;;;;;;5.61;75.64;99648.75;106599;1305;137893;-66
2022/12/30 11:48:54;;;;;;;27.70;17.00;;;;;;;5.62;75.59;99647.70;106534;1302;22273;-66
2022/12/30 11:51:26;;;;;;;33.50;18.60;;;;;;;5.64;75.90;99648.00;106613;1297;137549;-66
2022/12/30 11:54:12;;;;;;;32.30;19.40;;;;;;;5.66;75.94;99645.78;106596;1303;22242;-67
2022/12/30 11:56:51;;;;;;;36.20;22.10;;;;;;;5.66;76.07;99641.91;106648;1303;137488;-67
2022/12/30 11:59:19;;;;;;;36.20;20.60;;;;;;;5.67;76.46;99637.99;106631;1303;22337;-67
2022/12/30 12:01:49;;;;;;;33.30;20.50;;;;;;;5.67;76.30;99630.05;106605;1304;22856;-67
2022/12/30 12:04:35;;;;;;;36.40;21.60;;;;;;;5.65;76.24;99627.28;106639;1305;137172;-68
2022/12/30 12:07:03;;;;;;;34.00;21.30;;;;;;;5.62;76.34;99624.62;106753;1302;22189;-67
2022/12/30 12:09:40;;;;;;;37.70;20.50;;;;;;;5.61;76.35;99625.77;106654;1303;136857;-68
2022/12/30 12:12:11;;;;;;;31.70;18.50;;;;;;;5.60;76.53;99625.02;106568;1297;22406;-68
2022/12/30 12:14:52;;;;;;;32.60;18.10;;;;;;;5.59;76.61;99627.02;106408;1294;138749;-69
2022/12/30 12:17:29;;;;;;;28.10;15.70;;;;;;;5.61;76.79;99631.63;106546;1293;23357;-67
2022/12/30 12:19:59;;;;;;;27.60;14.70;;;;;;;5.63;76.78;99638.41;106583;1299;137870;-67
2022/12/30 12:22:29;;;;;;;25.90;16.70;;;;;;;5.65;76.98;99637.77;106615;1303;22187;-68
2022/12/30 12:25:03;;;;;;;33.00;16.90;;;;;;;5.66;76.93;99639.70;106607;1302;22419;-67
2022/12/30 12:27:30;;;;;;;28.00;17.20;;;;;;;5.68;76.95;99639.77;106442;1305;136963;-68
2022/12/30 12:29:56;;;;;;;30.20;18.60;;;;;;;5.69;76.95;99640.17;106654;1297;22137;-67
2022/12/30 12:32:29;;;;;;;;;;;;;;;5.70;76.69;99648.20;106521;1302;137623;-67